Time;durP1;ratioP1;P1;durP2;ratioP2;P2;SDS_P1;SDS_P2;PMS_P1;PMS_P2;Temp;Humidity;BMP_temperature;BMP_pressure;BME280_temperature;BME280_humidity;BME280_pressure;Samples;Min_cycle;Max_cycle;Signal;HPM_P1;HPM_P2
2021/05/23 00:01:42;;;;;;;3.07;1.50;;;;;;;;;;6119943;23;20190;-89
2021/05/23 00:04:47;;;;;;;5.97;2.07;;;;;;;;;;6119855;23;20173;-89
2021/05/23 00:07:53;;;;;;;7.53;2.20;;;;;;;;;;6120311;23;20214;-90
2021/05/23 00:10:59;;;;;;;8.07;2.20;;;;;;;;;;6121299;23;20178;-88
2021/05/23 00:14:04;;;;;;;6.80;1.97;;;;;;;;;;6118992;23;20245;-90
2021/05/23 00:17:09;;;;;;;4.07;1.90;;;;;;;;;;6103649;23;20226;-88
2021/05/23 00:20:16;;;;;;;6.40;2.13;;;;;;;;;;6103750;23;20197;-87
2021/05/23 00:23:21;;;;;;;7.37;1.60;;;;;;;;;;6104454;23;20174;-89
2021/05/23 00:26:27;;;;;;;5.27;2.00;;;;;;;;;;6104269;23;20187;-88
2021/05/23 00:29:31;;;;;;;4.83;1.50;;;;;;;;;;6121030;23;20189;-89
2021/05/23 00:32:35;;;;;;;8.37;1.70;;;;;;;;;;6101611;23;20252;-90
2021/05/23 00:35:40;;;;;;;5.20;1.77;;;;;;;;;;6102790;23;20193;-89
2021/05/23 00:38:45;;;;;;;5.83;2.10;;;;;;;;;;6101710;23;20260;-89
2021/05/23 00:41:49;;;;;;;4.27;1.77;;;;;;;;;;6102484;23;20178;-88
2021/05/23 00:44:54;;;;;;;5.00;1.60;;;;;;;;;;6101860;23;20174;-87
2021/05/23 00:47:59;;;;;;;7.67;1.80;;;;;;;;;;6102175;23;20688;-88
2021/05/23 00:51:04;;;;;;;4.37;1.70;;;;;;;;;;6102494;23;20162;-87
2021/05/23 00:54:09;;;;;;;4.83;1.90;;;;;;;;;;6102628;23;20246;-88
2021/05/23 00:57:14;;;;;;;5.57;2.17;;;;;;;;;;6119337;23;20217;-88
2021/05/23 01:00:34;;;;;;;4.50;1.43;;;;;;;;;;6101999;23;20241;-88
2021/05/23 01:03:56;;;;;;;7.43;1.90;;;;;;;;;;6100745;23;20254;-90
2021/05/23 01:07:00;;;;;;;9.37;2.07;;;;;;;;;;6101736;23;20222;-89
2021/05/23 01:10:06;;;;;;;5.40;1.70;;;;;;;;;;6119018;23;20624;-89
2021/05/23 01:13:32;;;;;;;3.30;1.60;;;;;;;;;;6102100;23;20628;-89
2021/05/23 01:16:37;;;;;;;3.80;1.53;;;;;;;;;;6101902;23;20185;-91
2021/05/23 01:19:50;;;;;;;9.90;4.10;;;;;;;;;;6102609;23;20329;-89
2021/05/23 01:22:59;;;;;;;4.73;1.80;;;;;;;;;;6101716;23;20174;-88
2021/05/23 01:26:07;;;;;;;6.20;1.70;;;;;;;;;;6102706;23;20173;-86
2021/05/23 01:29:12;;;;;;;3.53;1.60;;;;;;;;;;6104405;23;20502;-88
2021/05/23 01:32:16;;;;;;;4.83;1.77;;;;;;;;;;6105249;23;20193;-88
2021/05/23 01:35:22;;;;;;;7.57;1.90;;;;;;;;;;6120123;23;20273;-89
2021/05/23 01:38:28;;;;;;;9.87;1.80;;;;;;;;;;6103518;23;20592;-89
2021/05/23 01:41:35;;;;;;;6.37;1.63;;;;;;;;;;6119343;23;20174;-88
2021/05/23 01:44:40;;;;;;;5.80;1.77;;;;;;;;;;6102081;23;20493;-89
2021/05/23 01:47:45;;;;;;;5.30;1.77;;;;;;;;;;6118348;23;20174;-89
2021/05/23 01:50:50;;;;;;;7.07;1.80;;;;;;;;;;6101157;23;20203;-89
2021/05/23 01:53:54;;;;;;;5.37;2.00;;;;;;;;;;6102751;23;20226;-89
2021/05/23 01:56:59;;;;;;;4.10;1.67;;;;;;;;;;6119404;23;20170;-88
2021/05/23 02:00:04;;;;;;;6.37;2.00;;;;;;;;;;6101369;23;20256;-87
2021/05/23 02:03:14;;;;;;;2.33;1.50;;;;;;;;;;6103876;23;20219;-88
2021/05/23 02:06:18;;;;;;;4.43;1.80;;;;;;;;;;6102156;23;20245;-89
2021/05/23 02:09:23;;;;;;;6.47;1.73;;;;;;;;;;6102873;23;20169;-88
2021/05/23 02:12:28;;;;;;;4.07;1.70;;;;;;;;;;6103043;23;20170;-89
2021/05/23 02:15:33;;;;;;;4.87;1.80;;;;;;;;;;6103591;23;20219;-91
2021/05/23 02:18:38;;;;;;;7.33;2.07;;;;;;;;;;6120395;23;20241;-90
2021/05/23 02:21:42;;;;;;;6.33;2.00;;;;;;;;;;6118733;23;20226;-90
2021/05/23 02:24:47;;;;;;;4.47;1.67;;;;;;;;;;6104279;23;20211;-90
2021/05/23 02:27:53;;;;;;;2.33;1.60;;;;;;;;;;6104659;23;20189;-91
2021/05/23 02:30:58;;;;;;;7.33;2.27;;;;;;;;;;6104284;23;20662;-89
2021/05/23 02:34:02;;;;;;;5.23;1.63;;;;;;;;;;6102931;23;20174;-91
2021/05/23 02:37:07;;;;;;;3.47;1.77;;;;;;;;;;6088216;23;20182;-91
2021/05/23 02:40:12;;;;;;;3.63;1.80;;;;;;;;;;6086553;23;20197;-89
2021/05/23 02:43:18;;;;;;;4.77;1.80;;;;;;;;;;6086715;23;20186;-89
2021/05/23 02:46:22;;;;;;;5.07;1.67;;;;;;;;;;6088781;23;20170;-90
2021/05/23 02:49:27;;;;;;;6.20;2.00;;;;;;;;;;6087986;23;20186;-90
2021/05/23 02:52:31;;;;;;;4.50;1.97;;;;;;;;;;6087568;23;20217;-90
2021/05/23 02:55:36;;;;;;;4.53;2.00;;;;;;;;;;6086958;23;20318;-90
2021/05/23 02:58:41;;;;;;;6.30;2.00;;;;;;;;;;6088236;23;20664;-90
2021/05/23 03:01:46;;;;;;;5.83;2.07;;;;;;;;;;6087853;23;20622;-90
2021/05/23 03:04:53;;;;;;;6.10;2.30;;;;;;;;;;6087270;23;20174;-90
2021/05/23 03:07:58;;;;;;;11.57;2.67;;;;;;;;;;6087776;23;20625;-90
2021/05/23 03:11:03;;;;;;;2.20;1.50;;;;;;;;;;6086757;23;20176;-91
2021/05/23 03:14:08;;;;;;;5.00;2.00;;;;;;;;;;6086834;23;20174;-90
2021/05/23 03:17:12;;;;;;;4.57;2.10;;;;;;;;;;6087642;23;20170;-91
2021/05/23 03:20:18;;;;;;;4.47;1.90;;;;;;;;;;6087738;23;20252;-90
2021/05/23 03:23:22;;;;;;;4.07;1.93;;;;;;;;;;6087371;23;20263;-90
2021/05/23 03:26:27;;;;;;;7.40;2.17;;;;;;;;;;6087383;23;20557;-89
2021/05/23 03:29:32;;;;;;;4.60;1.90;;;;;;;;;;6086901;23;20174;-90
2021/05/23 03:32:37;;;;;;;5.53;2.10;;;;;;;;;;6086123;23;20244;-90
2021/05/23 03:35:42;;;;;;;7.87;2.40;;;;;;;;;;6103645;23;20241;-89
2021/05/23 03:38:47;;;;;;;4.10;2.20;;;;;;;;;;6087391;23;20193;-90
2021/05/23 03:41:51;;;;;;;3.50;1.80;;;;;;;;;;6086640;23;20177;-91
2021/05/23 03:44:57;;;;;;;4.90;2.07;;;;;;;;;;6085869;23;20193;-91
2021/05/23 03:48:02;;;;;;;4.80;2.17;;;;;;;;;;6084640;23;20560;-89
2021/05/23 03:51:08;;;;;;;7.20;2.10;;;;;;;;;;6086227;23;20149;-89
2021/05/23 03:54:12;;;;;;;5.07;2.40;;;;;;;;;;6085842;23;20210;-89
2021/05/23 03:57:19;;;;;;;5.67;2.00;;;;;;;;;;6087199;23;20237;-89
2021/05/23 04:00:25;;;;;;;5.60;2.33;;;;;;;;;;6086354;23;20237;-89
2021/05/23 04:03:31;;;;;;;9.33;2.40;;;;;;;;;;6086805;23;20173;-89
2021/05/23 04:06:36;;;;;;;5.10;2.40;;;;;;;;;;6087875;23;20507;-90
2021/05/23 04:09:41;;;;;;;6.10;2.10;;;;;;;;;;6090045;23;20173;-90
2021/05/23 04:12:47;;;;;;;6.03;2.20;;;;;;;;;;6088062;23;20288;-89
2021/05/23 04:15:52;;;;;;;4.77;2.03;;;;;;;;;;6088403;23;20178;-90
2021/05/23 04:18:57;;;;;;;5.70;2.03;;;;;;;;;;6088723;23;20645;-92
2021/05/23 04:22:01;;;;;;;3.93;1.83;;;;;;;;;;6085564;23;20178;-91
2021/05/23 04:25:09;;;;;;;5.00;2.22;;;;;;;;;;6087311;23;20174;-90
2021/05/23 04:28:13;;;;;;;5.63;1.85;;;;;;;;;;6088398;23;20189;-90
2021/05/23 04:31:18;;;;;;;3.63;2.20;;;;;;;;;;6086902;23;20613;-92
2021/05/23 04:34:23;;;;;;;5.63;2.20;;;;;;;;;;6087568;23;20228;-89
2021/05/23 04:37:28;;;;;;;5.27;2.10;;;;;;;;;;6087478;23;20185;-90
2021/05/23 04:40:32;;;;;;;3.33;2.10;;;;;;;;;;6087218;23;20270;-90
2021/05/23 04:43:37;;;;;;;5.32;2.20;;;;;;;;;;6086787;23;20194;-89
2021/05/23 04:46:42;;;;;;;4.85;2.10;;;;;;;;;;6087800;23;20169;-90
2021/05/23 04:49:47;;;;;;;4.43;2.25;;;;;;;;;;6088483;23;20174;-91
2021/05/23 04:52:51;;;;;;;7.57;2.55;;;;;;;;;;6088726;23;20736;-90
2021/05/23 04:55:56;;;;;;;5.35;2.42;;;;;;;;;;6087710;23;20621;-91
2021/05/23 04:59:00;;;;;;;7.65;2.08;;;;;;;;;;6088288;23;20300;-91
2021/05/23 05:02:05;;;;;;;5.80;2.70;;;;;;;;;;6086769;23;20277;-90
2021/05/23 05:05:24;;;;;;;4.43;2.30;;;;;;;;;;6089168;23;20192;-90
2021/05/23 05:08:29;;;;;;;5.65;2.28;;;;;;;;;;6087466;23;20202;-89
2021/05/23 05:11:33;;;;;;;7.18;2.10;;;;;;;;;;6086539;23;20198;-90
2021/05/23 05:14:38;;;;;;;4.10;2.17;;;;;;;;;;6088060;23;20709;-91
2021/05/23 05:17:43;;;;;;;5.40;2.13;;;;;;;;;;6088341;23;20246;-90
2021/05/23 05:20:47;;;;;;;5.28;2.13;;;;;;;;;;6086962;23;20193;-89
2021/05/23 05:23:52;;;;;;;7.90;2.20;;;;;;;;;;6087861;23;20224;-91
2021/05/23 05:26:56;;;;;;;5.10;2.00;;;;;;;;;;6088976;23;20234;-89
2021/05/23 05:30:01;;;;;;;5.07;2.38;;;;;;;;;;6087929;23;20201;-89
2021/05/23 05:33:07;;;;;;;6.68;2.22;;;;;;;;;;6087886;23;20177;-90
2021/05/23 05:36:11;;;;;;;5.28;2.03;;;;;;;;;;6100240;23;20197;-89
2021/05/23 05:39:16;;;;;;;7.03;2.45;;;;;;;;;;6101733;23;20393;-88
2021/05/23 05:42:20;;;;;;;3.00;2.10;;;;;;;;;;6119636;23;20157;-89
2021/05/23 05:45:25;;;;;;;7.47;2.35;;;;;;;;;;6103315;23;20237;-90
2021/05/23 05:48:30;;;;;;;4.78;2.33;;;;;;;;;;6103676;23;20173;-89
2021/05/23 05:51:34;;;;;;;5.80;2.78;;;;;;;;;;6103346;23;20173;-90
2021/05/23 05:54:39;;;;;;;5.03;2.53;;;;;;;;;;6104363;23;20194;-91
2021/05/23 05:57:43;;;;;;;4.47;2.28;;;;;;;;;;6120660;23;20179;-89
2021/05/23 06:00:48;;;;;;;2.83;1.60;;;;;;;;;;6103406;23;20197;-90
2021/05/23 06:03:53;;;;;;;4.77;1.87;;;;;;;;;;6120850;23;20237;-89
2021/05/23 06:06:58;;;;;;;3.87;1.70;;;;;;;;;;6120672;23;20179;-91
2021/05/23 06:10:04;;;;;;;6.90;1.73;;;;;;;;;;6104889;23;20345;-91
2021/05/23 06:13:08;;;;;;;3.80;1.98;;;;;;;;;;6122814;23;20625;-89
2021/05/23 06:16:12;;;;;;;4.00;1.80;;;;;;;;;;6122476;23;20562;-89
2021/05/23 06:19:18;;;;;;;5.22;1.88;;;;;;;;;;6123954;23;20201;-89
2021/05/23 06:22:22;;;;;;;3.45;2.10;;;;;;;;;;6123562;23;20177;-89
2021/05/23 06:25:27;;;;;;;3.27;1.60;;;;;;;;;;6109170;23;20254;-90
2021/05/23 06:28:32;;;;;;;6.53;1.80;;;;;;;;;;6109157;23;20154;-91
2021/05/23 06:31:36;;;;;;;9.80;1.97;;;;;;;;;;6108156;23;20169;-91
2021/05/23 06:34:42;;;;;;;7.53;1.83;;;;;;;;;;6107149;23;20193;-90
2021/05/23 06:37:47;;;;;;;5.90;2.20;;;;;;;;;;6091116;23;20227;-90
2021/05/23 06:40:52;;;;;;;5.72;2.00;;;;;;;;;;6091710;23;20210;-90
2021/05/23 06:43:57;;;;;;;6.25;2.20;;;;;;;;;;6091308;23;20177;-90
2021/05/23 06:47:01;;;;;;;6.05;2.10;;;;;;;;;;6091553;23;20195;-89
2021/05/23 06:53:30;;;;;;;5.13;1.90;;;;;;;;;;6089855;23;20194;-89
2021/05/23 06:56:35;;;;;;;3.78;2.20;;;;;;;;;;6091490;23;20190;-90
2021/05/23 06:59:39;;;;;;;4.50;2.05;;;;;;;;;;6090626;23;20194;-91
2021/05/23 07:02:44;;;;;;;5.65;1.63;;;;;;;;;;6094100;23;20169;-91
2021/05/23 07:05:50;;;;;;;3.47;1.60;;;;;;;;;;6092612;23;20173;-89
2021/05/23 07:08:55;;;;;;;4.45;1.50;;;;;;;;;;6091988;23;20186;-89
2021/05/23 07:11:59;;;;;;;4.53;1.60;;;;;;;;;;6092329;23;20169;-91
2021/05/23 07:15:08;;;;;;;3.27;1.40;;;;;;;;;;6093127;23;20165;-90
2021/05/23 07:18:12;;;;;;;2.30;1.27;;;;;;;;;;6093595;23;20293;-89
2021/05/23 07:21:18;;;;;;;4.60;1.53;;;;;;;;;;6091058;23;20222;-89
2021/05/23 07:24:23;;;;;;;6.10;1.57;;;;;;;;;;6091676;23;20205;-89
2021/05/23 07:27:27;;;;;;;5.15;1.88;;;;;;;;;;6089893;23;20172;-90
2021/05/23 07:30:31;;;;;;;5.27;1.57;;;;;;;;;;6090256;23;20174;-91
2021/05/23 07:33:37;;;;;;;5.90;1.40;;;;;;;;;;6090749;23;20190;-90
2021/05/23 07:36:43;;;;;;;1.52;0.90;;;;;;;;;;6091518;23;20173;-89
2021/05/23 07:39:47;;;;;;;3.97;1.10;;;;;;;;;;6090887;23;20209;-90
2021/05/23 07:42:52;;;;;;;3.03;0.90;;;;;;;;;;6091483;23;20183;-89
2021/05/23 07:45:57;;;;;;;4.70;1.00;;;;;;;;;;6090994;23;20222;-90
2021/05/23 07:49:01;;;;;;;3.57;1.10;;;;;;;;;;6091899;23;20169;-89
2021/05/23 07:52:07;;;;;;;3.33;1.20;;;;;;;;;;6092280;23;20185;-89
2021/05/23 07:55:13;;;;;;;2.20;1.00;;;;;;;;;;6093976;23;20190;-91
2021/05/23 07:58:18;;;;;;;3.27;0.97;;;;;;;;;;6090729;23;20170;-89
2021/05/23 08:01:23;;;;;;;7.83;1.43;;;;;;;;;;6092431;23;20164;-91
2021/05/23 08:04:28;;;;;;;3.27;1.10;;;;;;;;;;6093798;23;20169;-89
2021/05/23 08:07:34;;;;;;;2.15;1.00;;;;;;;;;;6095061;23;20246;-89
2021/05/23 08:10:38;;;;;;;3.40;1.03;;;;;;;;;;6089066;23;20227;-90
2021/05/23 08:13:43;;;;;;;4.70;1.20;;;;;;;;;;6090317;23;20178;-88
2021/05/23 08:16:49;;;;;;;1.90;1.10;;;;;;;;;;6091075;23;20210;-88
2021/05/23 08:19:54;;;;;;;2.27;0.80;;;;;;;;;;6092610;23;20217;-89
2021/05/23 08:22:59;;;;;;;2.13;0.50;;;;;;;;;;6090857;23;20170;-88
2021/05/23 08:26:04;;;;;;;2.97;1.03;;;;;;;;;;6092203;23;20245;-88
2021/05/23 08:29:09;;;;;;;2.07;1.00;;;;;;;;;;6092787;23;20234;-89
2021/05/23 08:32:14;;;;;;;2.20;0.80;;;;;;;;;;6095801;23;20221;-89
2021/05/23 08:35:19;;;;;;;2.23;1.00;;;;;;;;;;6097982;23;20205;-90
2021/05/23 08:38:25;;;;;;;1.47;0.97;;;;;;;;;;6125334;23;20218;-88
2021/05/23 08:41:30;;;;;;;1.83;0.70;;;;;;;;;;6126398;23;20173;-91
2021/05/23 08:44:34;;;;;;;2.10;0.80;;;;;;;;;;6106826;23;20214;-89
2021/05/23 08:47:40;;;;;;;1.63;0.90;;;;;;;;;;6107357;23;20174;-91
2021/05/23 08:50:45;;;;;;;2.97;1.00;;;;;;;;;;6107213;23;20174;-90
2021/05/23 08:53:51;;;;;;;4.60;0.73;;;;;;;;;;6125820;23;20292;-91
2021/05/23 08:56:55;;;;;;;1.00;0.70;;;;;;;;;;6125543;23;20192;-91
2021/05/23 09:00:00;;;;;;;1.83;0.90;;;;;;;;;;6125470;23;20285;-91
2021/05/23 09:03:06;;;;;;;1.33;0.70;;;;;;;;;;6123805;23;20228;-90
2021/05/23 09:06:11;;;;;;;2.73;1.10;;;;;;;;;;6122959;23;20231;-91
2021/05/23 09:09:16;;;;;;;3.00;0.90;;;;;;;;;;6125116;23;20242;-91
2021/05/23 09:12:21;;;;;;;2.57;0.90;;;;;;;;;;6109243;23;20246;-89
2021/05/23 09:15:27;;;;;;;1.33;0.87;;;;;;;;;;6127322;23;20618;-90
2021/05/23 09:18:41;;;;;;;4.33;0.80;;;;;;;;;;6126431;23;20177;-89
2021/05/23 09:21:46;;;;;;;1.23;0.60;;;;;;;;;;6123676;23;20169;-89
2021/05/23 09:24:53;;;;;;;1.33;0.63;;;;;;;;;;6105805;23;20162;-89
2021/05/23 09:27:57;;;;;;;1.57;0.70;;;;;;;;;;6108065;23;20227;-89
2021/05/23 09:31:11;;;;;;;1.17;0.70;;;;;;;;;;6106393;23;20169;-89
2021/05/23 09:34:22;;;;;;;2.00;0.60;;;;;;;;;;6107886;23;20170;-90
2021/05/23 09:37:30;;;;;;;3.03;0.65;;;;;;;;;;6091089;23;20173;-88
2021/05/23 09:40:37;;;;;;;0.70;0.50;;;;;;;;;;6090867;23;20246;-86
2021/05/23 09:43:42;;;;;;;0.50;0.50;;;;;;;;;;6089543;23;20166;-89
2021/05/23 09:46:51;;;;;;;2.63;0.70;;;;;;;;;;6115657;23;20229;-88
2021/05/23 09:49:58;;;;;;;1.50;0.60;;;;;;;;;;6099603;23;20181;-88
2021/05/23 09:53:04;;;;;;;1.08;0.55;;;;;;;;;;6095815;23;20181;-90
2021/05/23 09:56:11;;;;;;;1.13;0.68;;;;;;;;;;6097900;23;20198;-90
2021/05/23 09:59:19;;;;;;;1.35;0.77;;;;;;;;;;6093208;23;20197;-89
2021/05/23 10:02:24;;;;;;;1.00;0.60;;;;;;;;;;6094722;23;20157;-88
2021/05/23 10:05:30;;;;;;;0.60;0.50;;;;;;;;;;6093651;23;20245;-90
2021/05/23 10:08:35;;;;;;;1.13;0.50;;;;;;;;;;6094701;23;20223;-88
2021/05/23 10:11:41;;;;;;;2.78;0.65;;;;;;;;;;6095584;23;20178;-88
2021/05/23 10:14:46;;;;;;;1.50;0.60;;;;;;;;;;6094846;23;20182;-88
2021/05/23 10:17:51;;;;;;;0.90;0.50;;;;;;;;;;6094755;23;20198;-89
2021/05/23 10:20:57;;;;;;;0.65;0.60;;;;;;;;;;6093299;23;20659;-89
2021/05/23 10:24:03;;;;;;;0.40;0.40;;;;;;;;;;6094164;23;20573;-87
2021/05/23 10:27:11;;;;;;;1.35;0.63;;;;;;;;;;6109638;23;20173;-89
2021/05/23 10:30:16;;;;;;;0.68;0.60;;;;;;;;;;6094157;23;20191;-90
2021/05/23 10:33:22;;;;;;;0.95;0.60;;;;;;;;;;6092919;23;20186;-89
2021/05/23 10:36:33;;;;;;;1.70;1.10;;;;;;;;;;6108373;23;20197;-91
2021/05/23 10:39:40;;;;;;;1.20;0.50;;;;;;;;;;6125702;23;20234;-92
2021/05/23 10:42:50;;;;;;;2.13;0.60;;;;;;;;;;6125609;23;20177;-88
2021/05/23 10:46:09;;;;;;;0.68;0.60;;;;;;;;;;6110470;23;20185;-90
2021/05/23 10:49:16;;;;;;;0.77;0.50;;;;;;;;;;6113379;23;20251;-88
2021/05/23 10:52:22;;;;;;;1.17;0.50;;;;;;;;;;6127958;23;20671;-90
2021/05/23 10:55:27;;;;;;;2.28;0.70;;;;;;;;;;6128974;23;20356;-91
2021/05/23 10:58:33;;;;;;;0.77;0.60;;;;;;;;;;6115066;23;20177;-91
2021/05/23 11:01:39;;;;;;;0.88;0.52;;;;;;;;;;6128703;23;20169;-91
2021/05/23 11:04:44;;;;;;;1.35;0.70;;;;;;;;;;6132834;23;20165;-89
2021/05/23 11:07:55;;;;;;;0.93;0.60;;;;;;;;;;6129014;23;20301;-91
2021/05/23 11:11:01;;;;;;;0.75;0.60;;;;;;;;;;6134157;23;20173;-92
2021/05/23 11:14:18;;;;;;;5.00;2.80;;;;;;;;;;6115651;23;20174;-89
2021/05/23 11:17:23;;;;;;;2.20;0.70;;;;;;;;;;6133269;23;20678;-90
2021/05/23 11:20:28;;;;;;;6.22;1.35;;;;;;;;;;6114480;23;20197;-90
2021/05/23 11:23:34;;;;;;;1.35;0.88;;;;;;;;;;6130830;23;20174;-92
2021/05/23 11:26:40;;;;;;;2.65;0.77;;;;;;;;;;6112250;23;20226;-90
2021/05/23 11:29:46;;;;;;;1.08;0.50;;;;;;;;;;6126167;23;20214;-88
2021/05/23 11:32:57;;;;;;;2.40;0.90;;;;;;;;;;6108989;23;20189;-89
2021/05/23 11:36:02;;;;;;;1.83;0.73;;;;;;;;;;6124887;23;20198;-91
2021/05/23 11:39:07;;;;;;;2.20;0.80;;;;;;;;;;6128359;23;20214;-90
2021/05/23 11:42:13;;;;;;;5.25;1.13;;;;;;;;;;6125616;23;20286;-88
2021/05/23 11:45:24;;;;;;;1.80;0.95;;;;;;;;;;6116304;23;20157;-89
2021/05/23 11:48:43;;;;;;;2.13;0.88;;;;;;;;;;6115671;23;20250;-89
2021/05/23 11:51:48;;;;;;;1.27;0.60;;;;;;;;;;6130354;23;20226;-88
2021/05/23 11:54:57;;;;;;;2.15;0.80;;;;;;;;;;6111689;23;20165;-88
2021/05/23 11:58:07;;;;;;;2.10;0.88;;;;;;;;;;6108936;23;20202;-88
2021/05/23 12:01:14;;;;;;;1.13;0.68;;;;;;;;;;6125163;23;20214;-89
2021/05/23 12:04:19;;;;;;;1.83;0.73;;;;;;;;;;6131433;23;20299;-90
2021/05/23 12:07:23;;;;;;;2.00;0.65;;;;;;;;;;6130370;23;20542;-90
2021/05/23 12:10:30;;;;;;;2.03;0.80;;;;;;;;;;6126504;23;20169;-91
2021/05/23 12:13:38;;;;;;;1.77;0.60;;;;;;;;;;6111660;23;20218;-90
2021/05/23 12:16:49;;;;;;;6.05;0.90;;;;;;;;;;6113662;23;20258;-91
2021/05/23 12:25:45;;;;;;;2.35;1.02;;;;;;;;;;6171144;23;20220;-92
2021/05/23 12:28:50;;;;;;;1.90;1.08;;;;;;;;;;6199534;23;20197;-90
2021/05/23 12:32:03;;;;;;;2.53;0.85;;;;;;;;;;6198267;23;20171;-91
2021/05/23 12:35:13;;;;;;;1.50;0.60;;;;;;;;;;6201479;23;20171;-91
2021/05/23 12:38:18;;;;;;;6.63;0.82;;;;;;;;;;6198417;23;20176;-89
2021/05/23 12:41:22;;;;;;;1.85;0.80;;;;;;;;;;6197946;23;20194;-88
2021/05/23 12:44:30;;;;;;;1.95;1.00;;;;;;;;;;6199637;23;20246;-90
2021/05/23 12:47:35;;;;;;;4.78;0.90;;;;;;;;;;6198176;23;20239;-89
2021/05/23 12:50:45;;;;;;;4.80;1.20;;;;;;;;;;6200169;23;20175;-89
2021/05/23 12:53:51;;;;;;;2.50;0.70;;;;;;;;;;6179738;23;20172;-90
2021/05/23 12:56:57;;;;;;;3.75;1.38;;;;;;;;;;6199112;23;20259;-91
2021/05/23 13:00:07;;;;;;;2.88;1.00;;;;;;;;;;6196797;23;20227;-91
2021/05/23 13:03:19;;;;;;;4.93;1.15;;;;;;;;;;6197070;23;20172;-91
2021/05/23 13:06:25;;;;;;;6.55;1.60;;;;;;;;;;6184778;23;20188;-90
2021/05/23 13:09:33;;;;;;;2.88;0.80;;;;;;;;;;6198530;23;20172;-90
2021/05/23 13:12:39;;;;;;;8.65;1.15;;;;;;;;;;6181040;23;20180;-92
2021/05/23 13:15:44;;;;;;;2.15;0.90;;;;;;;;;;6199010;23;20215;-92
2021/05/23 13:18:50;;;;;;;2.15;0.80;;;;;;;;;;6199757;23;20219;-89
2021/05/23 13:21:56;;;;;;;8.82;1.20;;;;;;;;;;6181194;23;20222;-90
2021/05/23 13:25:04;;;;;;;2.80;1.20;;;;;;;;;;6183057;23;20247;-91
2021/05/23 13:28:09;;;;;;;3.70;1.10;;;;;;;;;;6183786;23;20172;-91
2021/05/23 13:31:14;;;;;;;2.80;1.00;;;;;;;;;;6198454;23;20175;-90
2021/05/23 13:34:20;;;;;;;4.18;1.75;;;;;;;;;;6195992;23;20183;-91
2021/05/23 13:37:25;;;;;;;4.70;1.25;;;;;;;;;;6197267;23;20251;-92
2021/05/23 13:40:30;;;;;;;5.38;1.10;;;;;;;;;;6196621;23;20178;-89
2021/05/23 13:43:35;;;;;;;1.73;1.00;;;;;;;;;;6196937;23;20178;-91
2021/05/23 13:46:40;;;;;;;5.47;1.20;;;;;;;;;;6198995;23;20256;-90
2021/05/23 13:49:49;;;;;;;7.88;1.20;;;;;;;;;;6196947;23;20175;-90
2021/05/23 13:52:53;;;;;;;1.85;1.05;;;;;;;;;;6198705;23;20167;-90
2021/05/23 13:55:58;;;;;;;3.60;1.10;;;;;;;;;;6201008;23;20215;-90
2021/05/23 13:59:06;;;;;;;5.20;0.88;;;;;;;;;;6204130;23;20205;-91
2021/05/23 14:02:12;;;;;;;1.38;0.88;;;;;;;;;;6201039;23;20171;-92
2021/05/23 14:05:18;;;;;;;1.50;0.80;;;;;;;;;;6198662;23;20196;-91
2021/05/23 14:08:24;;;;;;;1.85;1.00;;;;;;;;;;6199929;23;20171;-92
2021/05/23 14:11:29;;;;;;;3.80;1.00;;;;;;;;;;6182465;23;20175;-91
2021/05/23 14:14:34;;;;;;;1.80;1.00;;;;;;;;;;6182349;23;20676;-89
2021/05/23 14:17:38;;;;;;;1.13;0.65;;;;;;;;;;6182342;23;20235;-91
2021/05/23 14:20:45;;;;;;;4.43;1.02;;;;;;;;;;6197603;23;20195;-89
2021/05/23 14:23:51;;;;;;;2.83;0.98;;;;;;;;;;6180293;23;20168;-89
2021/05/23 14:26:55;;;;;;;1.80;0.60;;;;;;;;;;6198189;23;20168;-90
2021/05/23 14:30:00;;;;;;;1.50;0.70;;;;;;;;;;6197447;23;20208;-87
2021/05/23 14:33:05;;;;;;;1.77;0.70;;;;;;;;;;6198696;23;20172;-89
2021/05/23 14:36:11;;;;;;;3.42;0.90;;;;;;;;;;6198559;23;20700;-90
2021/05/23 14:39:16;;;;;;;2.35;0.88;;;;;;;;;;6182276;23;20303;-89
2021/05/23 14:42:20;;;;;;;7.10;0.93;;;;;;;;;;6199061;23;20172;-91
2021/05/23 14:45:25;;;;;;;1.25;0.70;;;;;;;;;;6182845;23;20187;-92
2021/05/23 14:48:30;;;;;;;1.65;0.65;;;;;;;;;;6187928;23;20175;-88
2021/05/23 14:51:36;;;;;;;2.38;1.23;;;;;;;;;;6199006;23;20671;-90
2021/05/23 14:54:42;;;;;;;2.00;0.70;;;;;;;;;;6198750;23;20223;-90
2021/05/23 14:57:47;;;;;;;5.10;0.90;;;;;;;;;;6199187;23;20168;-88
2021/05/23 15:00:53;;;;;;;3.78;1.70;;;;;;;;;;6204218;23;20199;-89
2021/05/23 15:07:19;;;;;;;6.22;1.42;;;;;;;;;;6186975;23;20263;-90
2021/05/23 15:10:24;;;;;;;1.75;0.93;;;;;;;;;;6202847;23;20248;-88
2021/05/23 15:13:29;;;;;;;3.30;0.63;;;;;;;;;;6197680;23;20188;-89
2021/05/23 15:16:35;;;;;;;3.42;0.90;;;;;;;;;;6196728;23;20203;-88
2021/05/23 15:19:39;;;;;;;3.58;0.60;;;;;;;;;;6201923;23;20588;-88
2021/05/23 15:22:45;;;;;;;1.33;0.65;;;;;;;;;;6194581;23;20172;-89
2021/05/23 15:25:49;;;;;;;3.42;0.63;;;;;;;;;;6208160;23;20195;-89
2021/05/23 15:32:17;;;;;;;2.25;0.75;;;;;;;;;;6215309;23;20155;-90
2021/05/23 15:35:22;;;;;;;2.70;0.90;;;;;;;;;;6197083;23;20219;-92
2021/05/23 15:38:29;;;;;;;1.40;0.50;;;;;;;;;;6215159;23;20481;-89
2021/05/23 15:41:34;;;;;;;5.68;1.75;;;;;;;;;;6197927;23;20196;-92
2021/05/23 17:12:42;;;;;;;5.72;2.60;;;;;;;;;;6189066;23;20208;-90
2021/05/23 17:19:16;;;;;;;1.98;0.85;;;;;;;;;;6186314;23;20212;-91
2021/05/23 17:22:24;;;;;;;1.67;0.82;;;;;;;;;;6197497;23;20187;-90
2021/05/23 17:25:29;;;;;;;4.00;1.00;;;;;;;;;;6199350;23;20675;-90
2021/05/23 17:28:34;;;;;;;7.07;2.33;;;;;;;;;;6179690;23;20167;-90
2021/05/23 17:31:39;;;;;;;3.80;1.73;;;;;;;;;;6197103;23;20638;-91
2021/05/23 17:34:44;;;;;;;2.42;1.30;;;;;;;;;;6199167;23;20160;-89
2021/05/23 17:37:49;;;;;;;6.22;2.33;;;;;;;;;;6199140;23;20191;-91
2021/05/23 17:40:54;;;;;;;4.13;2.45;;;;;;;;;;6196792;23;20191;-90
2021/05/23 17:44:00;;;;;;;7.05;2.38;;;;;;;;;;6198377;23;20615;-90
2021/05/23 17:47:04;;;;;;;4.82;1.80;;;;;;;;;;6197908;23;20171;-89
2021/05/23 17:50:11;;;;;;;4.45;1.20;;;;;;;;;;6198239;23;20195;-89
2021/05/23 17:53:16;;;;;;;2.15;1.00;;;;;;;;;;6196937;23;20220;-92
2021/05/23 17:56:20;;;;;;;5.28;1.30;;;;;;;;;;6181731;23;20196;-91
2021/05/23 17:59:26;;;;;;;6.75;2.45;;;;;;;;;;6196952;23;20235;-88
2021/05/23 18:02:30;;;;;;;3.63;1.50;;;;;;;;;;6181702;23;20263;-89
2021/05/23 18:05:37;;;;;;;9.38;2.30;;;;;;;;;;6198804;23;20172;-92
2021/05/23 18:08:45;;;;;;;4.70;1.50;;;;;;;;;;6186499;23;20176;-92
2021/05/23 18:11:50;;;;;;;4.53;1.40;;;;;;;;;;6183399;23;20234;-90
2021/05/23 18:14:56;;;;;;;3.22;1.15;;;;;;;;;;6201704;23;20175;-90
2021/05/23 18:18:01;;;;;;;4.55;1.35;;;;;;;;;;6200447;23;20228;-91
2021/05/23 18:21:06;;;;;;;4.32;1.70;;;;;;;;;;6203791;23;20199;-90
2021/05/23 18:24:11;;;;;;;2.70;1.60;;;;;;;;;;6201849;23;20164;-91
2021/05/23 18:27:15;;;;;;;5.35;1.40;;;;;;;;;;6201920;23;20168;-90
2021/05/23 18:30:21;;;;;;;2.65;1.50;;;;;;;;;;6218618;22;20619;-90
2021/05/23 18:33:27;;;;;;;7.55;3.65;;;;;;;;;;6201485;23;20171;-91
2021/05/23 18:36:32;;;;;;;2.63;1.70;;;;;;;;;;6202110;23;20533;-90
2021/05/23 18:39:40;;;;;;;3.85;2.00;;;;;;;;;;6202516;23;20267;-91
2021/05/23 18:42:45;;;;;;;2.25;1.40;;;;;;;;;;6202744;23;20229;-91
2021/05/23 18:45:51;;;;;;;2.58;1.20;;;;;;;;;;6218378;23;20183;-90
2021/05/23 18:48:55;;;;;;;3.67;1.20;;;;;;;;;;6200799;23;20171;-91
2021/05/23 18:52:12;;;;;;;3.50;2.03;;;;;;;;;;6206078;23;20188;-90
2021/05/23 18:55:19;;;;;;;5.07;1.55;;;;;;;;;;6209024;23;20184;-89
2021/05/23 18:58:24;;;;;;;3.78;0.98;;;;;;;;;;6209807;23;20183;-89
2021/05/23 19:01:31;;;;;;;7.32;1.35;;;;;;;;;;6227710;22;20203;-92
2021/05/23 19:04:36;;;;;;;3.85;1.20;;;;;;;;;;6209533;23;20167;-91
2021/05/23 19:07:42;;;;;;;7.07;1.92;;;;;;;;;;6211466;23;20237;-91
2021/05/23 19:10:48;;;;;;;4.82;1.90;;;;;;;;;;6210178;23;20168;-90
2021/05/23 19:13:57;;;;;;;7.78;1.75;;;;;;;;;;6208810;23;20155;-90
2021/05/23 19:17:05;;;;;;;3.38;1.17;;;;;;;;;;6209364;23;20225;-91
2021/05/23 19:20:11;;;;;;;6.63;1.48;;;;;;;;;;6210244;23;20196;-90
2021/05/23 19:23:16;;;;;;;3.28;1.50;;;;;;;;;;6211618;23;20167;-90
2021/05/23 19:26:21;;;;;;;4.25;1.50;;;;;;;;;;6209733;23;20271;-89
2021/05/23 19:29:27;;;;;;;2.35;1.42;;;;;;;;;;6210895;23;20175;-91
2021/05/23 19:32:37;;;;;;;8.13;2.17;;;;;;;;;;6210227;23;20172;-93
2021/05/23 19:35:45;;;;;;;5.93;2.40;;;;;;;;;;6210808;23;20148;-91
2021/05/23 19:38:51;;;;;;;3.28;1.63;;;;;;;;;;6210361;23;20208;-91
2021/05/23 19:41:57;;;;;;;5.00;1.60;;;;;;;;;;6210559;23;20203;-92
2021/05/23 19:45:03;;;;;;;9.35;2.65;;;;;;;;;;6191016;23;20215;-89
2021/05/23 19:48:10;;;;;;;7.50;3.45;;;;;;;;;;6208524;23;20175;-93
2021/05/23 19:51:15;;;;;;;6.50;2.70;;;;;;;;;;6210434;23;20159;-90
2021/05/23 19:54:20;;;;;;;8.80;3.03;;;;;;;;;;6209580;23;20168;-90
2021/05/23 19:57:26;;;;;;;7.18;2.70;;;;;;;;;;6210046;23;20160;-89
2021/05/23 20:00:32;;;;;;;9.20;2.70;;;;;;;;;;6210025;23;20227;-91
2021/05/23 20:03:38;;;;;;;7.60;2.45;;;;;;;;;;6208683;23;20171;-90
2021/05/23 20:06:43;;;;;;;5.47;2.00;;;;;;;;;;6209378;23;20195;-91
2021/05/23 20:09:48;;;;;;;4.63;2.03;;;;;;;;;;6209559;23;20171;-90
2021/05/23 20:12:56;;;;;;;2.50;1.57;;;;;;;;;;6224977;23;20195;-90
2021/05/23 20:16:11;;;;;;;12.57;2.00;;;;;;;;;;6209049;23;20183;-90
2021/05/23 20:19:20;;;;;;;3.63;1.90;;;;;;;;;;6208917;23;20148;-92
2021/05/23 20:22:26;;;;;;;2.83;1.70;;;;;;;;;;6199930;23;20180;-90